createdAt,value
2022-12-20T00:02:01.681Z,100094.91
2022-12-20T00:04:32.104Z,100102.78
2022-12-20T00:07:02.081Z,100091.09
2022-12-20T00:09:49.432Z,100105.97
2022-12-20T00:12:17.564Z,100120.03
2022-12-20T00:14:45.609Z,100137.53
2022-12-20T00:17:13.416Z,100159.28
2022-12-20T00:19:44.950Z,100161.97
2022-12-20T00:22:13.928Z,100196.09
2022-12-20T00:24:44.987Z,100223.25
2022-12-20T00:27:13.966Z,100241.22
2022-12-20T00:29:42.023Z,100269.94
2022-12-20T00:32:09.902Z,100287.63
2022-12-20T00:34:39.102Z,100308.84
2022-12-20T00:37:08.902Z,100332.78
2022-12-20T00:39:36.753Z,100360.84
2022-12-20T00:42:04.901Z,100370.22
2022-12-20T00:44:32.941Z,100360.78
2022-12-20T00:47:01.748Z,100376.06
2022-12-20T00:49:33.418Z,100383.78
2022-12-20T00:52:01.327Z,100373.34
2022-12-20T00:54:30.447Z,100381.88
2022-12-20T00:56:59.630Z,100378.38
2022-12-20T00:59:28.308Z,100382.31
2022-12-20T01:01:56.501Z,100376.78
2022-12-20T01:04:24.377Z,100377.34
2022-12-20T01:06:52.203Z,100394.84
2022-12-20T01:09:20.111Z,100399.09
2022-12-20T01:11:50.553Z,100405.84
2022-12-20T01:14:18.851Z,100423.63
2022-12-20T01:16:50.709Z,100423.50
2022-12-20T01:19:19.699Z,100430.78
2022-12-20T01:21:48.021Z,100427.31
2022-12-20T01:24:17.574Z,100418.94
2022-12-20T01:26:47.129Z,100413.88
2022-12-20T01:29:16.632Z,100389.38
2022-12-20T01:31:45.482Z,100412.91
2022-12-20T01:34:13.605Z,100409.34
2022-12-20T01:36:42.281Z,100408.44
2022-12-20T01:39:13.261Z,100402.22
2022-12-20T01:41:45.409Z,100417.50
2022-12-20T01:44:55.560Z,100416.63
2022-12-20T01:47:25.782Z,100416.69
2022-12-20T01:49:55.909Z,100409.22
2022-12-20T01:52:33.416Z,100416.34
2022-12-20T01:55:06.664Z,100415.38
2022-12-20T01:57:43.133Z,100424.06
2022-12-20T02:00:14.241Z,100429.59
2022-12-20T02:02:43.864Z,100409.50
2022-12-20T02:05:14.738Z,100411.94
2022-12-20T02:07:45.190Z,100420.53
2022-12-20T02:10:17.396Z,100410.72
2022-12-20T02:12:46.964Z,100413.91
2022-12-20T02:15:30.184Z,100421.41
2022-12-20T02:18:10.698Z,100432.66
2022-12-20T02:21:09.181Z,100420.25
2022-12-20T02:24:20.148Z,100409.97
2022-12-20T02:27:27.099Z,100401.06
2022-12-20T02:30:13.170Z,100385.31
2022-12-20T02:32:47.572Z,100381.13
2022-12-20T02:35:22.829Z,100382.53
2022-12-20T02:37:53.436Z,100364.72
2022-12-20T02:40:25.567Z,100372.53
2022-12-20T02:42:58.497Z,100339.84
2022-12-20T02:45:38.243Z,100321.56
2022-12-20T02:48:10.906Z,100324.16
2022-12-20T02:50:42.544Z,100291.03
2022-12-20T02:53:13.067Z,100261.69
2022-12-20T02:55:47.456Z,100223.44
2022-12-20T02:58:26.487Z,100182.38
2022-12-20T03:01:17.123Z,100141.34
2022-12-20T03:03:45.782Z,100078.63
2022-12-20T03:06:16.531Z,100025.31
2022-12-20T03:08:46.624Z,99987.72
2022-12-20T03:11:14.899Z,99932.19
2022-12-20T03:13:42.933Z,99876.94
2022-12-20T03:16:14.424Z,99859.25
2022-12-20T03:18:46.304Z,99834.56
2022-12-20T03:21:14.661Z,99809.94
2022-12-20T03:23:42.938Z,99790.28
2022-12-20T03:26:10.881Z,99770.06
2022-12-20T03:28:41.315Z,99758.72
2022-12-20T03:31:09.363Z,99741.19
2022-12-20T03:33:41.729Z,99716.56
2022-12-20T03:36:09.957Z,99719.28
2022-12-20T03:38:41.391Z,99714.78
2022-12-20T03:41:09.388Z,99708.00
2022-12-20T03:43:39.818Z,99690.06
2022-12-20T03:46:09.970Z,99687.75
2022-12-20T03:48:39.635Z,99675.25
2022-12-20T03:51:11.976Z,99681.06
2022-12-20T03:53:39.793Z,99685.75
2022-12-20T03:56:09.347Z,99685.75
2022-12-20T03:58:39.377Z,99691.94
2022-12-20T04:01:49.742Z,99692.69
2022-12-20T04:04:19.986Z,99688.53
2022-12-20T04:07:03.851Z,99681.47
2022-12-20T04:09:32.909Z,99688.69
2022-12-20T04:12:06.126Z,99702.59
2022-12-20T04:14:33.981Z,99706.75
2022-12-20T04:17:01.877Z,99687.97
2022-12-20T04:19:31.436Z,99687.75
2022-12-20T04:22:04.589Z,99675.34
2022-12-20T04:24:36.325Z,99676.13
2022-12-20T04:27:12.878Z,99665.47
2022-12-20T04:29:40.641Z,99667.34
2022-12-20T04:32:09.600Z,99652.19
2022-12-20T04:34:39.033Z,99647.56
2022-12-20T04:37:12.894Z,99653.91
2022-12-20T04:39:40.813Z,99645.97
2022-12-20T04:42:08.914Z,99643.06
2022-12-20T04:44:37.257Z,99642.91
2022-12-20T04:47:07.513Z,99649.69
2022-12-20T04:49:35.411Z,99643.31
2022-12-20T04:52:21.786Z,99650.16
2022-12-20T04:54:51.734Z,99649.22
2022-12-20T04:57:30.580Z,99635.16
2022-12-20T04:59:59.969Z,99640.19
2022-12-20T05:02:34.875Z,99624.81
2022-12-20T05:05:03.906Z,99628.09
2022-12-20T05:07:34.308Z,99618.19
2022-12-20T05:10:12.471Z,99618.25
2022-12-20T05:12:40.344Z,99609.88
2022-12-20T05:15:09.659Z,99616.69
2022-12-20T05:17:46.075Z,99601.63
2022-12-20T05:20:15.203Z,99608.63
2022-12-20T05:23:01.761Z,99609.41
2022-12-20T05:25:44.442Z,99608.53
2022-12-20T05:28:12.236Z,99603.25
2022-12-20T05:30:40.639Z,99594.03
2022-12-20T05:33:08.853Z,99593.19
2022-12-20T05:35:37.169Z,99580.56
2022-12-20T05:38:06.785Z,99579.88
2022-12-20T05:40:40.169Z,99572.66
2022-12-20T05:43:10.369Z,99566.59
2022-12-20T05:45:39.689Z,99571.47
2022-12-20T05:48:07.976Z,99566.94
2022-12-20T05:50:35.994Z,99575.38
2022-12-20T05:53:11.548Z,99571.88
2022-12-20T05:55:46.532Z,99563.28
2022-12-20T05:58:14.720Z,99566.78
2022-12-20T06:00:44.154Z,99555.34
2022-12-20T06:03:16.298Z,99563.22
2022-12-20T06:05:44.952Z,99550.56
2022-12-20T06:08:14.530Z,99557.31
2022-12-20T06:10:43.751Z,99559.88
2022-12-20T06:13:11.695Z,99566.78
2022-12-20T06:15:44.648Z,99577.88
2022-12-20T06:18:12.539Z,99586.69
2022-12-20T06:20:40.547Z,99594.78
2022-12-20T06:23:10.703Z,99583.25
2022-12-20T06:25:41.825Z,99587.69
2022-12-20T06:28:12.840Z,99620.53
2022-12-20T06:30:40.726Z,99623.53
2022-12-20T06:33:08.624Z,99644.28
2022-12-20T06:35:37.331Z,99666.22
2022-12-20T06:38:08.178Z,99682.25
2022-12-20T06:40:36.138Z,99699.59
2022-12-20T06:43:03.984Z,99722.16
2022-12-20T06:45:39.312Z,99736.09
2022-12-20T06:48:09.231Z,99732.16
2022-12-20T06:50:37.145Z,99718.41
2022-12-20T06:53:05.033Z,99711.72
2022-12-20T06:55:33.560Z,99683.41
2022-12-20T06:58:06.334Z,99674.84
2022-12-20T07:00:37.191Z,99651.13
2022-12-20T07:03:06.034Z,99641.69
2022-12-20T07:05:35.068Z,99625.19
2022-12-20T07:08:09.143Z,99603.13
2022-12-20T07:10:38.366Z,99594.25
2022-12-20T07:13:09.219Z,99585.22
2022-12-20T07:15:39.812Z,99590.81
2022-12-20T07:18:09.031Z,99574.97
2022-12-20T07:20:37.012Z,99580.88
2022-12-20T07:23:08.648Z,99572.00
2022-12-20T07:25:37.149Z,99576.16
2022-12-20T07:28:05.292Z,99573.69
2022-12-20T07:30:36.043Z,99584.16
2022-12-20T07:33:13.784Z,99571.22
2022-12-20T07:38:27.703Z,99573.25
2022-12-20T07:40:55.659Z,99567.03
2022-12-20T07:43:23.784Z,99564.31
2022-12-20T07:45:55.844Z,99553.66
2022-12-20T07:48:25.688Z,99543.91
2022-12-20T07:51:01.770Z,99551.69
2022-12-20T07:53:47.458Z,99555.03
2022-12-20T07:56:22.400Z,99549.91
2022-12-20T07:58:56.266Z,99546.31
2022-12-20T08:01:33.588Z,99541.88
2022-12-20T08:04:12.861Z,99558.59
2022-12-20T08:06:45.005Z,99568.31
2022-12-20T08:09:17.262Z,99557.75
2022-12-20T08:11:52.472Z,99556.97
2022-12-20T08:14:32.791Z,99542.03
2022-12-20T08:17:05.873Z,99551.34
2022-12-20T08:19:38.807Z,99561.34
2022-12-20T08:22:09.980Z,99544.16
2022-12-20T08:24:41.654Z,99556.53
2022-12-20T08:27:10.577Z,99542.13
2022-12-20T08:29:38.539Z,99537.94
2022-12-20T08:32:08.507Z,99537.75
2022-12-20T08:34:41.197Z,99533.16
2022-12-20T08:37:14.761Z,99532.97
2022-12-20T08:39:44.497Z,99528.47
2022-12-20T08:42:13.074Z,99533.16
2022-12-20T08:44:43.213Z,99531.97
2022-12-20T08:47:11.671Z,99531.63
2022-12-20T08:49:47.169Z,99525.91
2022-12-20T08:52:15.575Z,99514.22
2022-12-20T08:54:44.544Z,99515.16
2022-12-20T08:57:12.660Z,99506.53
2022-12-20T08:59:41.561Z,99496.78
2022-12-20T09:02:09.603Z,99502.34
2022-12-20T09:04:41.380Z,99492.44
2022-12-20T09:07:13.542Z,99490.56
2022-12-20T09:09:41.982Z,99496.97
2022-12-20T09:12:11.460Z,99502.94
2022-12-20T09:14:39.249Z,99485.34
2022-12-20T09:17:07.552Z,99485.88
2022-12-20T09:19:35.626Z,99482.94
2022-12-20T09:22:04.338Z,99485.50
2022-12-20T09:24:34.822Z,99471.66
2022-12-20T09:27:02.731Z,99474.03
2022-12-20T09:29:35.471Z,99471.13
2022-12-20T09:32:05.998Z,99487.75
2022-12-20T09:34:35.213Z,99489.03
2022-12-20T09:37:08.318Z,99509.44
2022-12-20T09:39:40.619Z,99536.09
2022-12-20T09:42:10.350Z,99544.81
2022-12-20T09:44:42.205Z,99577.50
2022-12-20T09:47:16.759Z,99603.66
2022-12-20T09:49:49.341Z,99618.16
2022-12-20T09:52:29.898Z,99644.13
2022-12-20T09:55:06.687Z,99676.75
2022-12-20T09:57:47.630Z,99696.16
2022-12-20T10:00:17.864Z,99735.09
2022-12-20T10:03:09.579Z,99763.78
2022-12-20T10:05:42.034Z,99803.88
2022-12-20T10:08:19.523Z,99825.22
2022-12-20T10:11:06.593Z,99824.44
2022-12-20T10:13:51.380Z,99830.13
2022-12-20T10:16:34.211Z,99828.56
2022-12-20T10:19:19.452Z,99820.88
2022-12-20T10:21:55.891Z,99822.91
2022-12-20T10:24:32.725Z,99798.38
2022-12-20T10:27:16.001Z,99774.88
2022-12-20T10:29:44.751Z,99756.34
2022-12-20T10:32:22.405Z,99726.38
2022-12-20T10:34:56.983Z,99722.31
2022-12-20T10:37:25.153Z,99714.53
2022-12-20T10:39:55.473Z,99711.03
2022-12-20T10:42:37.307Z,99692.34
2022-12-20T10:45:34.118Z,99678.19
2022-12-20T10:48:06.364Z,99674.59
2022-12-20T10:50:35.371Z,99656.47
2022-12-20T10:53:25.614Z,99652.13
2022-12-20T10:55:57.081Z,99654.69
2022-12-20T10:58:35.242Z,99637.09
2022-12-20T11:01:13.725Z,99612.88
2022-12-20T11:04:00.716Z,99587.75
2022-12-20T11:06:46.884Z,99599.28
2022-12-20T11:09:31.048Z,99585.72
2022-12-20T11:12:07.242Z,99575.13
2022-12-20T11:14:42.140Z,99568.81
2022-12-20T11:17:23.105Z,99563.59
2022-12-20T11:20:13.651Z,99554.56
2022-12-20T11:23:00.396Z,99542.00
2022-12-20T11:25:52.759Z,99544.56
2022-12-20T11:28:39.158Z,99545.25
2022-12-20T11:31:25.815Z,99545.81
2022-12-20T11:34:08.474Z,99541.38
2022-12-20T11:37:00.356Z,99551.22
2022-12-20T11:39:33.959Z,99551.22
2022-12-20T11:42:11.102Z,99541.47
2022-12-20T11:45:06.617Z,99546.84
2022-12-20T11:47:58.131Z,99538.91
2022-12-20T11:50:41.438Z,99537.03
2022-12-20T11:53:17.994Z,99527.38
2022-12-20T11:55:50.363Z,99519.44
2022-12-20T11:58:22.665Z,99515.09
2022-12-20T12:00:58.352Z,99519.63
2022-12-20T12:03:39.361Z,99506.03
2022-12-20T12:06:21.065Z,99506.22
2022-12-20T12:08:54.558Z,99510.47
2022-12-20T12:14:31.428Z,99495.63
2022-12-20T12:17:21.189Z,99498.63
2022-12-20T12:19:58.407Z,99494.44
2022-12-20T12:22:38.631Z,99489.16
2022-12-20T12:25:18.474Z,99483.25
2022-12-20T12:27:46.842Z,99478.06
2022-12-20T12:30:17.627Z,99467.66
2022-12-20T12:32:51.975Z,99465.09
2022-12-20T12:35:46.872Z,99458.00
2022-12-20T12:38:37.449Z,99457.41
2022-12-20T12:41:48.076Z,99457.41
2022-12-20T12:44:35.638Z,99480.75
2022-12-20T12:47:08.079Z,99469.06
2022-12-20T12:49:39.818Z,99446.94
2022-12-20T12:52:35.467Z,99438.16
2022-12-20T12:55:04.094Z,99441.66
2022-12-20T12:57:58.065Z,99443.31
2022-12-20T13:00:51.365Z,99444.09
2022-12-20T13:03:42.230Z,99439.09
2022-12-20T13:06:58.871Z,99439.94
2022-12-20T13:09:44.745Z,99431.25
2022-12-20T13:12:50.296Z,99435.50
2022-12-20T13:15:53.318Z,99431.91
2022-12-20T13:18:29.312Z,99442.50
2022-12-20T13:21:33.656Z,99437.84
2022-12-20T13:24:38.335Z,99437.75
2022-12-20T13:27:39.293Z,99448.44
2022-12-20T13:30:28.329Z,99438.72
2022-12-20T13:33:24.174Z,99449.22
2022-12-20T13:36:35.649Z,99448.63
2022-12-20T13:39:26.731Z,99448.94
2022-12-20T13:42:17.486Z,99441.84
2022-12-20T13:44:48.513Z,99441.25
2022-12-20T13:47:35.932Z,99451.00
2022-12-20T13:50:23.336Z,99450.91
2022-12-20T13:52:53.012Z,99456.28
2022-12-20T13:55:33.595Z,99444.94
2022-12-20T13:58:08.975Z,99448.34
2022-12-20T14:00:42.562Z,99446.38
2022-12-20T14:03:41.774Z,99458.75
2022-12-20T14:06:13.586Z,99449.72
2022-12-20T14:08:49.968Z,99455.09
2022-12-20T14:11:21.610Z,99452.09
2022-12-20T14:14:02.229Z,99444.50
2022-12-20T14:16:32.045Z,99468.81
2022-12-20T14:19:08.005Z,99465.31
2022-12-20T14:21:38.205Z,99465.31
2022-12-20T14:24:07.467Z,99462.94
2022-12-20T14:26:41.511Z,99475.91
2022-12-20T14:29:16.073Z,99464.47
2022-12-20T14:31:46.683Z,99451.69
2022-12-20T14:34:18.885Z,99468.22
2022-12-20T14:36:48.668Z,99470.78
2022-12-20T14:39:30.713Z,99468.91
2022-12-20T14:42:00.052Z,99481.19
2022-12-20T14:44:31.844Z,99471.66
2022-12-20T14:47:06.185Z,99482.91
2022-12-20T14:49:36.877Z,99481.19
2022-12-20T14:52:16.113Z,99463.44
2022-12-20T14:57:44.715Z,99467.78
2022-12-20T15:00:22.589Z,99464.09
2022-12-20T15:03:02.757Z,99466.84
2022-12-20T15:05:42.158Z,99461.56
2022-12-20T15:08:19.644Z,99469.09
2022-12-20T15:10:55.867Z,99464.94
2022-12-20T15:13:30.055Z,99470.63
2022-12-20T15:16:02.493Z,99477.63
2022-12-20T15:18:30.503Z,99471.56
2022-12-20T15:21:05.397Z,99462.75
2022-12-20T15:23:35.842Z,99490.16
2022-12-20T15:26:05.794Z,99469.09
2022-12-20T15:28:34.702Z,99458.09
2022-12-20T15:31:05.940Z,99467.47
2022-12-20T15:33:45.780Z,99461.41
2022-12-20T15:36:19.451Z,99466.88
2022-12-20T15:39:12.188Z,99447.88
2022-12-20T15:41:44.563Z,99453.91
2022-12-20T15:44:18.981Z,99462.34
2022-12-20T15:46:53.010Z,99452.41
2022-12-20T15:49:24.166Z,99461.13
2022-12-20T15:51:59.362Z,99473.63
2022-12-20T15:54:31.460Z,99459.31
2022-12-20T15:57:03.353Z,99478.91
2022-12-20T15:59:59.059Z,99481.63
2022-12-20T16:02:29.320Z,99457.78
2022-12-20T16:04:59.477Z,99481.81
2022-12-20T16:07:28.575Z,99473.09
2022-12-20T16:09:56.535Z,99484.63
2022-12-20T16:12:50.902Z,99484.47
2022-12-20T16:15:30.249Z,99483.59
2022-12-20T16:18:02.888Z,99470.63
2022-12-20T16:20:35.830Z,99480.03
2022-12-20T16:23:19.579Z,99482.56
2022-12-20T16:25:54.475Z,99481.72
2022-12-20T16:28:38.329Z,99488.91
2022-12-20T16:31:13.492Z,99482.66
2022-12-20T16:33:43.736Z,99484.47
2022-12-20T16:36:14.044Z,99484.38
2022-12-20T16:38:43.374Z,99490.53
2022-12-20T16:41:14.766Z,99497.00
2022-12-20T16:43:44.246Z,99499.50
2022-12-20T16:46:13.726Z,99498.38
2022-12-20T16:48:43.843Z,99487.03
2022-12-20T16:51:26.340Z,99505.38
2022-12-20T16:56:45.871Z,99500.00
2022-12-20T16:59:20.738Z,99515.19
2022-12-20T17:01:52.768Z,99507.34
2022-12-20T17:04:27.067Z,99508.19
2022-12-20T17:06:56.123Z,99505.63
2022-12-20T17:12:16.226Z,99508.19
2022-12-20T17:14:44.070Z,99507.69
2022-12-20T17:17:11.991Z,99523.38
2022-12-20T17:19:41.336Z,99527.81
2022-12-20T17:24:57.636Z,99579.25
2022-12-20T17:27:25.754Z,99578.09
2022-12-20T17:29:53.883Z,99562.31
2022-12-20T17:32:24.481Z,99488.31
2022-12-20T17:34:55.231Z,99465.47
2022-12-20T17:37:24.654Z,99441.66
2022-12-20T17:39:52.668Z,99427.66
2022-12-20T17:42:23.246Z,99429.06
2022-12-20T17:44:56.248Z,99432.75
2022-12-20T17:47:24.280Z,99423.84
2022-12-20T17:49:53.312Z,99440.13
2022-12-20T17:52:22.668Z,99439.09
2022-12-20T17:54:50.714Z,99427.66
2022-12-20T17:57:20.956Z,99440.13
2022-12-20T17:59:55.045Z,99438.31
2022-12-20T18:02:25.091Z,99418.78
2022-12-20T18:04:53.435Z,99415.63
2022-12-20T18:07:22.683Z,99419.03
2022-12-20T18:09:50.961Z,99417.41
2022-12-20T18:12:19.337Z,99412.72
2022-12-20T18:14:49.657Z,99407.59
2022-12-20T18:17:17.786Z,99404.97
2022-12-20T18:19:45.862Z,99401.38
2022-12-20T18:22:14.203Z,99391.72
2022-12-20T18:24:43.426Z,99389.25
2022-12-20T18:27:12.390Z,99380.56
2022-12-20T18:29:40.236Z,99382.44
2022-12-20T18:32:08.208Z,99383.28
2022-12-20T18:34:36.692Z,99389.63
2022-12-20T18:37:05.765Z,99380.75
2022-12-20T18:39:34.207Z,99381.75
2022-12-20T18:42:03.625Z,99389.63
2022-12-20T18:44:35.770Z,99379.88
2022-12-20T18:47:04.648Z,99389.53
2022-12-20T18:49:33.200Z,99384.50
2022-12-20T18:52:01.155Z,99386.28
2022-12-20T18:54:35.141Z,99374.97
2022-12-20T18:57:06.602Z,99389.63
2022-12-20T18:59:34.874Z,99391.31
2022-12-20T19:02:04.020Z,99382.78
2022-12-20T19:04:33.060Z,99388.19
2022-12-20T19:07:03.009Z,99391.78
2022-12-20T19:09:33.196Z,99388.38
2022-12-20T19:12:01.230Z,99395.47
2022-12-20T19:14:32.448Z,99392.06
2022-12-20T19:17:00.512Z,99400.16
2022-12-20T19:19:28.744Z,99390.16
2022-12-20T19:21:57.709Z,99390.00
2022-12-20T19:24:25.738Z,99399.31
2022-12-20T19:26:55.188Z,99406.22
2022-12-20T19:29:23.289Z,99408.25
2022-12-20T19:31:52.771Z,99415.59
2022-12-20T19:34:22.132Z,99415.13
2022-12-20T19:36:51.777Z,99417.94
2022-12-20T19:39:22.223Z,99429.19
2022-12-20T19:42:21.767Z,99426.56
2022-12-20T19:44:40.366Z,99435.09
2022-12-20T19:47:09.608Z,99433.63
2022-12-20T19:49:39.323Z,99424.00
2022-12-20T19:52:07.797Z,99428.34
2022-12-20T19:54:36.643Z,99421.13
2022-12-20T19:57:05.028Z,99428.97
2022-12-20T19:59:33.519Z,99432.78
2022-12-20T20:02:01.768Z,99435.59
2022-12-20T20:04:31.338Z,99437.75
2022-12-20T20:06:59.306Z,99438.84
2022-12-20T20:09:27.241Z,99424.69
2022-12-20T20:11:57.827Z,99423.69
2022-12-20T20:14:26.148Z,99430.84
2022-12-20T20:16:54.699Z,99428.78
2022-12-20T20:19:22.639Z,99435.94
2022-12-20T20:21:53.176Z,99447.63
2022-12-20T20:24:21.158Z,99447.34
2022-12-20T20:26:50.064Z,99443.78
2022-12-20T20:29:33.336Z,99451.03
2022-12-20T20:32:15.273Z,99461.53
2022-12-20T20:34:50.433Z,99464.19
2022-12-20T20:37:19.879Z,99458.97
2022-12-20T20:39:47.942Z,99461.53
2022-12-20T20:42:22.948Z,99445.75
2022-12-20T20:44:52.275Z,99461.69
2022-12-20T20:47:20.615Z,99460.00
2022-12-20T20:49:48.566Z,99460.47
2022-12-20T20:52:16.693Z,99458.38
2022-12-20T20:54:46.145Z,99467.31
2022-12-20T20:57:15.029Z,99462.03
2022-12-20T20:59:44.353Z,99461.31
2022-12-20T21:02:14.301Z,99459.22
2022-12-20T21:04:42.323Z,99458.59
2022-12-20T21:07:10.159Z,99441.06
2022-12-20T21:09:38.959Z,99437.31
2022-12-20T21:12:08.512Z,99461.66
2022-12-20T21:15:12.634Z,99463.53
2022-12-20T21:17:24.798Z,99456.44
2022-12-20T21:19:52.611Z,99466.16
2022-12-20T21:22:20.530Z,99472.66
2022-12-20T21:24:48.711Z,99471.81
2022-12-20T21:27:18.067Z,99471.81
2022-12-20T21:29:46.014Z,99471.03
2022-12-20T21:32:14.021Z,99485.31
2022-12-20T21:34:41.892Z,99497.59
2022-12-20T21:37:12.954Z,99487.28
2022-12-20T21:39:40.899Z,99482.06
2022-12-20T21:42:09.994Z,99487.88
2022-12-20T21:44:41.373Z,99481.16
2022-12-20T21:47:11.344Z,99485.31
2022-12-20T21:49:40.620Z,99501.09
2022-12-20T21:52:08.789Z,99495.97
2022-12-20T21:54:36.689Z,99483.94
2022-12-20T21:57:04.710Z,99488.84
2022-12-20T21:59:32.658Z,99483.56
2022-12-20T22:02:02.166Z,99482.97
2022-12-20T22:04:31.848Z,99481.16
2022-12-20T22:06:59.936Z,99481.31
2022-12-20T22:09:28.046Z,99481.94
2022-12-20T22:11:57.505Z,99483.03
2022-12-20T22:14:26.019Z,99484.75
2022-12-20T22:16:54.780Z,99496.84
2022-12-20T22:19:24.293Z,99504.94
2022-12-20T22:21:58.044Z,99518.13
2022-12-20T22:24:26.618Z,99519.69
2022-12-20T22:26:54.755Z,99525.78
2022-12-20T22:29:22.761Z,99509.22
2022-12-20T22:31:52.650Z,99511.78
2022-12-20T22:34:22.063Z,99507.19
2022-12-20T22:36:51.422Z,99516.81
2022-12-20T22:39:19.395Z,99517.84
2022-12-20T22:41:47.655Z,99521.50
2022-12-20T22:44:17.867Z,99517.22
2022-12-20T22:46:45.834Z,99506.97
2022-12-20T22:49:18.227Z,99515.94
2022-12-20T22:51:57.679Z,99529.22
2022-12-20T22:54:35.712Z,99533.22
2022-12-20T22:57:03.881Z,99529.97
2022-12-20T22:59:32.550Z,99520.22
2022-12-20T23:02:00.650Z,99539.50
2022-12-20T23:04:29.967Z,99549.47
2022-12-20T23:06:57.910Z,99551.19
2022-12-20T23:09:29.709Z,99545.13
2022-12-20T23:12:17.448Z,99544.50
2022-12-20T23:15:04.371Z,99548.75
2022-12-20T23:17:33.543Z,99558.78
2022-12-20T23:20:19.020Z,99566.00
2022-12-20T23:22:46.903Z,99574.13
2022-12-20T23:25:16.605Z,99575.06
2022-12-20T23:27:47.650Z,99575.97
2022-12-20T23:30:17.929Z,99578.53
2022-12-20T23:32:45.958Z,99586.47
2022-12-20T23:35:15.222Z,99580.78
2022-12-20T23:37:46.042Z,99592.56
2022-12-20T23:40:18.357Z,99599.03
2022-12-20T23:42:47.529Z,99609.44
2022-12-20T23:45:15.653Z,99611.31
2022-12-20T23:47:43.781Z,99631.75
2022-12-20T23:50:12.232Z,99627.56
2022-12-20T23:52:40.692Z,99634.56
2022-12-20T23:55:09.505Z,99641.69
2022-12-20T23:57:38.005Z,99649.75
